WetterOnline ( https://www.wetteronline.de )

Wetter aktuell Nürburg

Aktuelles Wetter: Nürburg-Barweiler (488m)

6-stündlich | Neueste Meldungen
Ortszeit Temperatur Wetter
So, 22.05. 14:00 19.1° C leicht bewölkt
So, 22.05. 8:00 10.6° C fast wolkenlos
So, 22.05. 2:00 9.8° C wolkenlos
Sa, 21.05. 20:00 15.2° C wolkig
Sa, 21.05. 14:00 16.1° C wolkig
Sa, 21.05. 8:00 9.7° C bewölkt
Sa, 21.05. 2:00 9.2° C fast wolkenlos
Fr, 20.05. 20:00 16.6° C bewölkt
Ortszeit Temperatur Wetter
So, 22.05. 19:00 20.1° C wolkig
So, 22.05. 18:50 20.1° C wolkig
So, 22.05. 18:40 19.9° C bedeckt
So, 22.05. 18:30 20.1° C wolkig
So, 22.05. 18:20 20.1° C wolkig
So, 22.05. 18:10 20.5° C bewölkt
So, 22.05. 18:00 20.7° C leicht bewölkt
So, 22.05. 17:30 21.8° C wolkig
So, 22.05. 17:00 22.0° C leicht bewölkt
So, 22.05. 16:30 21.2° C leicht bewölkt
So, 22.05. 16:00 21.3° C leicht bewölkt
Ortszeit Relative Feuchte Sichtweite
So, 22.05. 14:00 44% 55 km
So, 22.05. 8:00 79% 30 km
So, 22.05. 2:00 82% 45 km
Sa, 21.05. 20:00 62% 55 km
Sa, 21.05. 14:00 53% 55 km
Sa, 21.05. 8:00 85% 45 km
Sa, 21.05. 2:00 90% 24 km
Fr, 20.05. 20:00 91% 50 km
Ortszeit Relative Feuchte Sichtweite
So, 22.05. 19:00 52% 65 km
So, 22.05. 18:50 52% -
So, 22.05. 18:40 52% -
So, 22.05. 18:30 53% 60 km
So, 22.05. 18:20 53% -
So, 22.05. 18:10 52% -
So, 22.05. 18:00 51% >70 km
So, 22.05. 17:30 41% >70 km
So, 22.05. 17:00 38% >70 km
So, 22.05. 16:30 39% >70 km
So, 22.05. 16:00 41% 55 km
Ortszeit Niederschlagsmenge Niederschlagsart
So, 22.05. 14:00 0.0 l/m2 in 6 Std. -
So, 22.05. 8:00 0.0 l/m2 in 12 Std. -
So, 22.05. 2:00 0.0 l/m2 in 6 Std. -
Sa, 21.05. 20:00 0.0 l/m2 in 12 Std. -
Sa, 21.05. 14:00 0.0 l/m2 in 6 Std. -
Sa, 21.05. 8:00 0.0 l/m2 in 12 Std. -
Sa, 21.05. 2:00 0.0 l/m2 in 6 Std. -
Fr, 20.05. 20:00 31 l/m2 in 12 Std. Regen
Ortszeit Niederschlagsmenge Niederschlagsart
So, 22.05. 19:00 0.0 l/m2 in 1 Std. -
So, 22.05. 18:50 keine Meldung -
So, 22.05. 18:40 keine Meldung -
So, 22.05. 18:30 0.0 l/m2 in 1 Std. -
So, 22.05. 18:20 keine Meldung -
So, 22.05. 18:10 keine Meldung -
So, 22.05. 18:00 0.0 l/m2 in 1 Std. -
So, 22.05. 17:30 0.0 l/m2 in 1 Std. -
So, 22.05. 17:00 0.0 l/m2 in 1 Std. -
So, 22.05. 16:30 0.0 l/m2 in 1 Std. -
So, 22.05. 16:00 0.0 l/m2 in 1 Std. -
Ortszeit Stärke Spitze Richtung
km/h Bft. km/h Grad Sektor
So, 22.05. 14:00 7 2 18 290° W
So, 22.05. 8:00 4 1 7 210° SW
So, 22.05. 2:00 4 1 14 230° SW
Sa, 21.05. 20:00 7 2 32 50° NO
Sa, 21.05. 14:00 18 3 43 260° W
Sa, 21.05. 8:00 14 3 29 250° W
Sa, 21.05. 2:00 11 2 50 230° SW
Fr, 20.05. 20:00 17 3 48 270° W
Ortszeit Stärke Spitze Richtung
km/h Bft. km/h Grad Sektor
So, 22.05. 19:00 13 3 24 110° O
So, 22.05. 18:50 13 3 - 110° O
So, 22.05. 18:40 11 2 - 110° O
So, 22.05. 18:30 13 3 24 110° O
So, 22.05. 18:20 13 3 - 110° O
So, 22.05. 18:10 13 3 - 120° SO
So, 22.05. 18:00 11 2 22 130° SO
So, 22.05. 17:30 7 2 11 210° SW
So, 22.05. 17:00 9 2 19 250° W
So, 22.05. 16:30 4 1 11 230° SW
So, 22.05. 16:00 6 1 17 130° SO
Ortszeit Untergrenze Bedeckung Gattung
total tief tief mittel hoch
So, 22.05. 14:00 9000 m 4/8 0/8 - - -
So, 22.05. 8:00 9000 m 2/8 0/8 - - -
So, 22.05. 2:00 - 0/8 0/8 - - -
Sa, 21.05. 20:00 1470 m 7/8 4/8 - - -
Sa, 21.05. 14:00 1230 m 7/8 3/8 - - -
Sa, 21.05. 8:00 450 m 7/8 7/8 - - -
Sa, 21.05. 2:00 480 m 1/8 1/8 - - -
Fr, 20.05. 20:00 570 m 7/8 7/8 - - -
Ortszeit Bedeckungsgrad in Achtel und Wolkenuntergrenze
So, 22.05. 19:00 3(3000m) 7(9000m) 8(10500m)
So, 22.05. 18:50 3(3000m) 7(9000m) 8(10500m)
So, 22.05. 18:40 8
So, 22.05. 18:30 7(9000m) 7(10500m)
So, 22.05. 18:20 7(9000m) 7(10500m)
So, 22.05. 18:10 7
So, 22.05. 18:00 7(9000m) 7(10500m)
So, 22.05. 17:30 3(9000m) 6(10500m) 7(10500m)
So, 22.05. 17:00 1(6300m) 5(10500m) 5(10500m)
So, 22.05. 16:30 1(6900m) 4(9000m) 6(10500m)
So, 22.05. 16:00 5(8700m) 7(9000m) 7(9000m)
Ortszeit Luftdruck NN (hPa) Tendenz (hPa in 3 Std.)
So, 22.05. 14:00 1014 - 1,3
So, 22.05. 8:00 1018 - 0,4
So, 22.05. 2:00 1020 - 0,9
Sa, 21.05. 20:00 1020 - 1,1
Sa, 21.05. 14:00 1022 - 0,1
Sa, 21.05. 8:00 1023 + 0,4
Sa, 21.05. 2:00 1022 + 1,5
Fr, 20.05. 20:00 1015 + 0,1
Ortszeit Luftdruck NN (hPa) Tendenz (hPa in 3 Std.)
So, 22.05. 19:00 1011 - 1,9
So, 22.05. 18:50 1011 keine Meldung
So, 22.05. 18:40 1011 keine Meldung
So, 22.05. 18:30 1011 - 1,7
So, 22.05. 18:20 1011 keine Meldung
So, 22.05. 18:10 1011 keine Meldung
So, 22.05. 18:00 1011 - 1,6
So, 22.05. 17:30 1011 - 1,6
So, 22.05. 17:00 1012 - 1,7
So, 22.05. 16:30 1012 - 1,8
So, 22.05. 16:00 1012 - 1,9
Ortszeit Schneehöhe (cm)
So, 22.05. 14:00 0
So, 22.05. 8:00 0
So, 22.05. 2:00 0
Sa, 21.05. 20:00 0
Sa, 21.05. 14:00 0
Sa, 21.05. 8:00 0
Sa, 21.05. 2:00 0
Fr, 20.05. 20:00 0
Ortszeit Schneehöhe (cm)
So, 22.05. 19:00 0
So, 22.05. 18:50 0
So, 22.05. 18:40 0
So, 22.05. 18:30 0
So, 22.05. 18:20 0
So, 22.05. 18:10 0
So, 22.05. 18:00 0
So, 22.05. 17:30 0
So, 22.05. 17:00 0
So, 22.05. 16:30 0
So, 22.05. 16:00 0
Link zu dieser Seite / Seite empfehlen

Das Wetter in ...